createdAt,value
2022-10-18T00:00:04.884Z,15.00
2022-10-18T00:02:31.913Z,13.80
2022-10-18T00:04:59.085Z,15.20
2022-10-18T00:07:26.123Z,17.80
2022-10-18T00:09:53.109Z,16.30
2022-10-18T00:12:20.123Z,17.80
2022-10-18T00:14:50.985Z,19.30
2022-10-18T00:17:18.432Z,19.70
2022-10-18T00:19:46.896Z,18.10
2022-10-18T00:22:13.991Z,15.90
2022-10-18T00:24:40.989Z,13.90
2022-10-18T00:27:08.038Z,15.80
2022-10-18T00:29:35.024Z,14.50
2022-10-18T00:32:01.925Z,15.90
2022-10-18T00:34:29.004Z,14.00
2022-10-18T00:36:56.225Z,18.10
2022-10-18T00:39:23.270Z,15.10
2022-10-18T00:41:50.465Z,19.30
2022-10-18T00:44:17.466Z,13.50
2022-10-18T00:46:45.932Z,18.00
2022-10-18T00:49:15.626Z,10.90
2022-10-18T00:51:44.459Z,15.80
2022-10-18T00:54:12.925Z,15.90
2022-10-18T00:56:40.190Z,21.40
2022-10-18T00:59:07.822Z,18.00
2022-10-18T01:01:36.608Z,13.70
2022-10-18T01:04:03.775Z,16.10
2022-10-18T01:06:30.672Z,14.90
2022-10-18T01:09:13.955Z,17.10
2022-10-18T01:11:59.929Z,16.90
2022-10-18T01:15:03.543Z,11.80
2022-10-18T01:18:03.159Z,12.60
2022-10-18T01:20:49.070Z,15.70
2022-10-18T01:23:21.038Z,15.80
2022-10-18T01:26:15.801Z,11.40
2022-10-18T01:29:04.476Z,11.00
2022-10-18T01:31:33.464Z,14.10
2022-10-18T01:34:03.294Z,15.50
2022-10-18T01:36:40.684Z,15.20
2022-10-18T01:39:10.093Z,14.60
2022-10-18T01:41:37.517Z,13.30
2022-10-18T01:44:05.274Z,11.40
2022-10-18T01:46:32.235Z,14.20
2022-10-18T01:48:59.264Z,15.30
2022-10-18T01:51:26.723Z,14.60
2022-10-18T01:53:53.792Z,16.30
2022-10-18T01:56:31.773Z,16.50
2022-10-18T01:59:31.380Z,17.60
2022-10-18T02:02:40.213Z,14.90
2022-10-18T02:05:13.332Z,11.40
2022-10-18T02:07:51.878Z,13.90
2022-10-18T02:10:36.473Z,13.30
2022-10-18T02:13:03.419Z,12.50
2022-10-18T02:15:33.389Z,10.10
2022-10-18T02:18:00.384Z,12.20
2022-10-18T02:20:28.642Z,10.50
2022-10-18T02:22:56.261Z,10.20
2022-10-18T02:25:28.215Z,10.60
2022-10-18T02:27:55.318Z,13.70
2022-10-18T02:30:24.529Z,11.00
2022-10-18T02:32:57.025Z,7.90
2022-10-18T02:35:27.156Z,18.20
2022-10-18T02:37:54.269Z,13.50
2022-10-18T02:40:21.315Z,16.30
2022-10-18T02:42:56.201Z,11.10
2022-10-18T02:45:23.319Z,15.10
2022-10-18T02:47:50.344Z,15.00
2022-10-18T02:50:17.598Z,13.10
2022-10-18T02:52:44.643Z,13.40
2022-10-18T02:55:11.687Z,10.40
2022-10-18T02:57:38.567Z,10.50
2022-10-18T03:00:06.449Z,12.40
2022-10-18T03:02:33.343Z,13.30
2022-10-18T03:05:00.209Z,12.80
2022-10-18T03:07:27.124Z,16.40
2022-10-18T03:09:54.078Z,13.50
2022-10-18T03:12:21.012Z,10.90
2022-10-18T03:14:47.990Z,12.80
2022-10-18T03:17:14.915Z,12.80
2022-10-18T03:19:42.367Z,8.80
2022-10-18T03:22:09.414Z,11.80
2022-10-18T03:24:36.973Z,11.70
2022-10-18T03:27:03.982Z,10.70
2022-10-18T03:29:31.072Z,14.70
2022-10-18T03:31:58.112Z,8.80
2022-10-18T03:34:25.062Z,8.50
2022-10-18T03:36:52.105Z,8.90
2022-10-18T03:39:18.979Z,13.50
2022-10-18T03:41:45.995Z,13.50
2022-10-18T03:44:13.043Z,8.00
2022-10-18T03:46:39.931Z,7.70
2022-10-18T03:49:07.042Z,10.20
2022-10-18T03:51:34.082Z,7.70
2022-10-18T03:54:00.948Z,10.60
2022-10-18T03:56:27.991Z,9.90
2022-10-18T03:58:55.125Z,8.80
2022-10-18T04:01:22.229Z,13.10
2022-10-18T04:03:49.251Z,10.80
2022-10-18T04:06:16.341Z,8.60
2022-10-18T04:08:43.247Z,7.60
2022-10-18T04:11:11.275Z,7.90
2022-10-18T04:13:38.772Z,9.50
2022-10-18T04:16:05.986Z,8.30
2022-10-18T04:18:33.149Z,9.20
2022-10-18T04:21:00.296Z,8.70
2022-10-18T04:23:27.221Z,10.40
2022-10-18T04:25:54.128Z,9.10
2022-10-18T04:28:21.126Z,12.30
2022-10-18T04:30:54.518Z,7.80
2022-10-18T04:33:21.504Z,8.00
2022-10-18T04:35:51.512Z,8.90
2022-10-18T04:38:19.005Z,7.60
2022-10-18T04:40:46.860Z,10.50
2022-10-18T04:43:13.873Z,12.10
2022-10-18T04:45:40.817Z,9.60
2022-10-18T04:48:07.943Z,11.20
2022-10-18T04:50:34.850Z,11.20
2022-10-18T04:53:13.772Z,7.90
2022-10-18T04:55:46.866Z,7.60
2022-10-18T04:58:13.765Z,12.10
2022-10-18T05:00:40.922Z,9.00
2022-10-18T05:03:08.671Z,7.10
2022-10-18T05:05:49.737Z,6.50
2022-10-18T05:08:22.509Z,11.10
2022-10-18T05:10:49.517Z,11.30
2022-10-18T05:13:16.416Z,8.80
2022-10-18T05:15:43.395Z,11.10
2022-10-18T05:18:10.294Z,12.50
2022-10-18T05:20:37.340Z,7.70
2022-10-18T05:23:04.510Z,10.20
2022-10-18T05:25:31.362Z,10.40
2022-10-18T05:28:00.925Z,9.10
2022-10-18T05:30:30.379Z,9.70
2022-10-18T05:32:57.392Z,9.60
2022-10-18T05:35:24.282Z,13.20
2022-10-18T05:37:51.285Z,10.60
2022-10-18T05:56:04.232Z,9.90
2022-10-18T05:58:31.652Z,11.80
2022-10-18T06:01:02.455Z,11.50
2022-10-18T06:03:30.251Z,9.50
2022-10-18T06:06:15.446Z,12.20
2022-10-18T06:08:43.078Z,9.80
2022-10-18T06:11:14.940Z,10.40
2022-10-18T06:13:46.285Z,10.70
2022-10-18T06:16:15.345Z,7.50
2022-10-18T06:18:42.427Z,13.00
2022-10-18T06:21:12.259Z,9.00
2022-10-18T06:23:40.413Z,11.30
2022-10-18T06:26:09.717Z,12.60
2022-10-18T06:28:38.355Z,10.20
2022-10-18T06:31:07.698Z,9.10
2022-10-18T06:33:36.530Z,14.00
2022-10-18T06:36:09.984Z,10.50
2022-10-18T06:38:37.236Z,12.80
2022-10-18T06:41:04.884Z,13.00
2022-10-18T06:43:31.978Z,8.10
2022-10-18T06:46:01.360Z,10.40
2022-10-18T06:48:28.163Z,10.60
2022-10-18T06:50:59.253Z,9.40
2022-10-18T06:53:28.349Z,9.70
2022-10-18T06:56:03.995Z,9.10
2022-10-18T06:58:31.986Z,11.50
2022-10-18T07:00:59.004Z,9.00
2022-10-18T07:03:26.700Z,9.10
2022-10-18T07:05:54.012Z,9.90
2022-10-18T07:08:20.946Z,7.30
2022-10-18T07:10:52.569Z,7.20
2022-10-18T07:13:32.052Z,10.30
2022-10-18T07:16:15.791Z,8.10
2022-10-18T07:18:49.598Z,8.70
2022-10-18T07:21:21.450Z,7.90
2022-10-18T07:23:49.403Z,24.90
2022-10-18T07:26:25.069Z,8.80
2022-10-18T07:28:55.289Z,13.60
2022-10-18T07:31:22.441Z,9.00
2022-10-18T07:33:51.345Z,10.90
2022-10-18T07:36:20.630Z,9.20
2022-10-18T07:38:49.468Z,8.00
2022-10-18T07:41:16.469Z,6.80
2022-10-18T07:43:48.015Z,16.20
2022-10-18T07:46:17.032Z,5.60
2022-10-18T07:48:43.753Z,11.90
2022-10-18T07:51:10.812Z,8.70
2022-10-18T07:53:38.156Z,6.40
2022-10-18T07:56:09.709Z,6.60
2022-10-18T07:58:37.472Z,6.90
2022-10-18T08:01:05.367Z,9.30
2022-10-18T08:03:33.921Z,10.20
2022-10-18T08:06:01.687Z,7.00
2022-10-18T08:08:30.172Z,11.30
2022-10-18T08:11:14.624Z,8.00
2022-10-18T08:13:43.214Z,10.90
2022-10-18T08:16:12.807Z,7.80
2022-10-18T08:18:39.889Z,8.50
2022-10-18T08:21:08.451Z,9.10
2022-10-18T08:23:37.935Z,7.20
2022-10-18T08:26:15.565Z,6.40
2022-10-18T08:28:49.093Z,7.80
2022-10-18T08:31:25.717Z,8.10
2022-10-18T08:33:54.915Z,5.20
2022-10-18T08:36:21.872Z,6.80
2022-10-18T08:38:49.430Z,5.00
2022-10-18T08:41:32.955Z,6.50
2022-10-18T08:44:20.278Z,5.70
2022-10-18T08:46:49.066Z,7.70
2022-10-18T08:49:59.411Z,5.90
2022-10-18T08:52:49.822Z,5.00
2022-10-18T08:55:24.759Z,6.50
2022-10-18T08:57:51.952Z,5.30
2022-10-18T09:00:24.081Z,5.10
2022-10-18T09:03:03.281Z,4.60
2022-10-18T09:05:44.150Z,7.20
2022-10-18T09:08:15.326Z,5.60
2022-10-18T09:11:04.811Z,4.10
2022-10-18T09:13:48.476Z,3.60
2022-10-18T09:16:21.624Z,6.00
2022-10-18T09:18:57.886Z,6.20
2022-10-18T09:22:03.165Z,7.10
2022-10-18T09:24:50.277Z,7.80
2022-10-18T09:27:18.938Z,3.70
2022-10-18T09:30:11.078Z,7.00
2022-10-18T09:32:47.334Z,6.90
2022-10-18T09:35:47.197Z,6.10
2022-10-18T09:38:16.204Z,5.10
2022-10-18T09:40:54.149Z,15.60
2022-10-18T09:43:23.649Z,8.60
2022-10-18T09:45:51.157Z,8.40
2022-10-18T09:48:17.953Z,4.20
2022-10-18T09:51:06.942Z,4.20
2022-10-18T09:53:41.641Z,3.40
2022-10-18T09:56:19.880Z,7.40
2022-10-18T09:58:48.267Z,6.20
2022-10-18T10:01:28.888Z,8.50
2022-10-18T10:03:56.250Z,3.90
2022-10-18T10:06:28.108Z,5.30
2022-10-18T10:08:59.470Z,6.20
2022-10-18T10:11:34.207Z,7.80
2022-10-18T10:14:14.162Z,5.30
2022-10-18T10:16:50.984Z,8.40
2022-10-18T10:19:27.380Z,4.40
2022-10-18T10:22:03.334Z,5.70
2022-10-18T10:24:50.571Z,3.70
2022-10-18T10:27:29.617Z,3.90
2022-10-18T10:30:05.760Z,5.40
2022-10-18T10:32:47.878Z,4.20
2022-10-18T10:35:35.280Z,7.50
2022-10-18T10:38:21.214Z,14.40
2022-10-18T10:40:51.236Z,6.10
2022-10-18T10:43:40.000Z,4.20
2022-10-18T10:46:18.314Z,7.20
2022-10-18T10:49:04.482Z,4.70
2022-10-18T10:51:41.117Z,9.00
2022-10-18T10:54:15.031Z,5.40
2022-10-18T10:59:22.452Z,12.20
2022-10-18T11:01:50.818Z,5.50
2022-10-18T11:04:28.758Z,10.10
2022-10-18T11:07:08.438Z,6.40
2022-10-18T11:09:50.300Z,9.00
2022-10-18T11:12:22.573Z,6.30
2022-10-18T11:15:09.389Z,4.20
2022-10-18T11:18:10.217Z,7.00
2022-10-18T11:20:44.604Z,11.20
2022-10-18T11:23:12.968Z,7.90
2022-10-18T11:25:42.901Z,7.00
2022-10-18T11:28:19.113Z,7.40
2022-10-18T11:31:02.129Z,8.20
2022-10-18T11:34:03.491Z,6.20
2022-10-18T11:36:30.569Z,7.80
2022-10-18T11:39:07.446Z,16.10
2022-10-18T11:41:41.594Z,9.00
2022-10-18T11:44:32.186Z,5.10
2022-10-18T11:47:20.311Z,4.40
2022-10-18T11:49:59.751Z,6.80
2022-10-18T11:52:38.751Z,8.60
2022-10-18T11:55:44.960Z,8.10
2022-10-18T11:58:18.054Z,4.40
2022-10-18T12:00:48.894Z,4.60
2022-10-18T12:03:23.820Z,4.80
2022-10-18T12:05:51.619Z,9.50
2022-10-18T12:08:32.900Z,6.50
2022-10-18T12:11:06.385Z,6.10
2022-10-18T12:13:51.936Z,6.80
2022-10-18T12:16:33.536Z,6.40
2022-10-18T12:19:12.781Z,4.30
2022-10-18T12:21:39.657Z,10.00
2022-10-18T12:24:18.217Z,10.80
2022-10-18T12:26:48.034Z,8.70
2022-10-18T12:29:39.692Z,5.50
2022-10-18T12:32:11.508Z,5.60
2022-10-18T12:34:44.171Z,7.90
2022-10-18T12:37:29.393Z,6.00
2022-10-18T12:40:18.466Z,8.90
2022-10-18T12:42:47.500Z,8.20
2022-10-18T12:45:24.462Z,4.10
2022-10-18T12:47:51.203Z,4.60
2022-10-18T12:50:27.281Z,7.50
2022-10-18T12:53:23.704Z,3.50
2022-10-18T12:55:51.130Z,5.80
2022-10-18T12:58:29.586Z,9.10
2022-10-18T13:01:04.482Z,6.10
2022-10-18T13:03:54.857Z,5.60
2022-10-18T13:06:24.418Z,3.50
2022-10-18T13:09:15.477Z,6.30
2022-10-18T13:11:42.469Z,3.80
2022-10-18T13:14:24.719Z,5.40
2022-10-18T13:17:00.005Z,3.70
2022-10-18T13:20:24.927Z,5.90
2022-10-18T13:23:21.031Z,6.70
2022-10-18T13:26:01.355Z,8.60
2022-10-18T13:28:52.610Z,4.80
2022-10-18T13:31:23.668Z,4.90
2022-10-18T13:33:50.628Z,3.80
2022-10-18T13:36:22.732Z,7.70
2022-10-18T13:38:55.001Z,7.70
2022-10-18T13:41:27.546Z,8.60
2022-10-18T13:44:02.859Z,10.10
2022-10-18T13:46:31.973Z,4.60
2022-10-18T13:49:05.081Z,5.30
2022-10-18T13:51:56.786Z,32.20
2022-10-18T13:54:38.579Z,5.60
2022-10-18T13:57:39.361Z,3.30
2022-10-18T14:00:28.810Z,5.60
2022-10-18T14:03:31.724Z,5.10
2022-10-18T14:06:08.280Z,5.60
2022-10-18T14:08:41.692Z,5.10
2022-10-18T14:11:45.930Z,5.50
2022-10-18T14:14:36.109Z,7.60
2022-10-18T14:17:34.493Z,6.40
2022-10-18T14:20:23.787Z,8.40
2022-10-18T14:22:55.731Z,9.70
2022-10-18T14:25:27.096Z,5.30
2022-10-18T14:28:06.852Z,6.00
2022-10-18T14:30:34.662Z,5.90
2022-10-18T14:33:01.461Z,6.20
2022-10-18T14:35:33.206Z,9.40
2022-10-18T14:38:00.535Z,7.70
2022-10-18T14:40:38.450Z,9.60
2022-10-18T14:43:08.558Z,15.60
2022-10-18T14:45:35.420Z,8.70
2022-10-18T14:48:16.886Z,7.70
2022-10-18T14:50:45.324Z,8.40
2022-10-18T15:17:59.860Z,6.10
2022-10-18T15:20:31.638Z,7.20
2022-10-18T15:25:47.953Z,12.60
2022-10-18T15:28:31.234Z,13.40
2022-10-18T15:30:58.434Z,13.40
2022-10-18T15:33:26.821Z,13.80
2022-10-18T15:35:53.957Z,12.10
2022-10-18T15:38:31.304Z,14.80
2022-10-18T15:40:58.113Z,13.80
2022-10-18T15:43:25.348Z,15.80
2022-10-18T15:46:05.037Z,18.50
2022-10-18T15:48:38.688Z,16.30
2022-10-18T15:51:26.217Z,19.90
2022-10-18T15:53:53.678Z,12.80
2022-10-18T15:56:28.571Z,20.70
2022-10-18T15:58:58.891Z,16.00
2022-10-18T16:01:37.380Z,13.70
2022-10-18T16:04:08.568Z,15.30
2022-10-18T16:06:38.117Z,18.80
2022-10-18T16:09:06.169Z,14.20
2022-10-18T16:11:36.186Z,13.70
2022-10-18T16:14:05.394Z,11.60
2022-10-18T16:16:32.434Z,10.40
2022-10-18T16:18:59.917Z,9.30
2022-10-18T16:21:26.929Z,9.80
2022-10-18T16:23:54.197Z,18.60
2022-10-18T16:26:21.867Z,12.20
2022-10-18T16:28:50.693Z,12.90
2022-10-18T16:31:22.294Z,13.60
2022-10-18T16:41:26.764Z,17.60
2022-10-18T16:43:53.809Z,22.60
2022-10-18T16:46:27.618Z,24.80
2022-10-18T16:48:55.302Z,29.00
2022-10-18T16:51:22.634Z,32.10
2022-10-18T16:53:49.784Z,34.10
2022-10-18T16:56:18.473Z,33.20
2022-10-18T16:58:45.725Z,34.10
2022-10-18T17:01:14.086Z,30.90
2022-10-18T17:03:41.359Z,30.10
2022-10-18T17:06:31.337Z,29.90
2022-10-18T17:08:58.381Z,29.60
2022-10-18T17:11:26.907Z,30.10
2022-10-18T17:13:54.331Z,31.50
2022-10-18T17:19:02.345Z,30.30
2022-10-18T17:21:29.409Z,34.50
2022-10-18T17:24:06.015Z,36.90
2022-10-18T17:26:33.120Z,38.80
2022-10-18T17:29:05.037Z,35.80
2022-10-18T17:31:32.655Z,39.40
2022-10-18T17:34:02.136Z,33.20
2022-10-18T17:36:32.802Z,41.10
2022-10-18T17:39:00.226Z,38.90
2022-10-18T17:41:27.280Z,39.70
2022-10-18T17:43:54.240Z,40.40
2022-10-18T17:46:21.155Z,33.70
2022-10-18T17:48:48.139Z,38.10
2022-10-18T17:51:16.492Z,27.80
2022-10-18T17:53:43.538Z,31.90
2022-10-18T17:56:10.693Z,29.80
2022-10-18T17:58:37.950Z,37.00
2022-10-18T18:01:19.122Z,30.60
2022-10-18T18:03:47.926Z,28.90
2022-10-18T18:06:18.875Z,33.70
2022-10-18T18:08:46.126Z,35.10
2022-10-18T18:11:13.467Z,28.90
2022-10-18T18:13:40.598Z,30.00
2022-10-18T18:16:19.012Z,34.80
2022-10-18T18:18:46.526Z,36.30
2022-10-18T18:21:13.552Z,35.70
2022-10-18T18:23:40.870Z,25.50
2022-10-18T18:26:07.928Z,32.60
2022-10-18T18:28:36.377Z,25.80
2022-10-18T18:31:07.588Z,27.40
2022-10-18T18:33:35.620Z,31.50
2022-10-18T18:36:05.119Z,29.20
2022-10-18T18:38:33.609Z,30.10
2022-10-18T18:41:03.931Z,25.50
2022-10-18T18:43:31.071Z,32.30
2022-10-18T18:45:58.345Z,30.40
2022-10-18T18:48:27.332Z,29.90
2022-10-18T18:50:54.718Z,29.80
2022-10-18T18:53:23.357Z,25.80
2022-10-18T18:55:53.066Z,31.40
2022-10-18T18:58:20.222Z,29.00
2022-10-18T19:00:47.335Z,25.50
2022-10-18T19:03:14.521Z,25.40
2022-10-18T19:05:41.678Z,21.40
2022-10-18T19:08:08.713Z,25.50
2022-10-18T19:10:35.690Z,20.30
2022-10-18T19:13:02.708Z,32.30
2022-10-18T19:15:29.703Z,22.60
2022-10-18T19:17:56.734Z,30.90
2022-10-18T19:20:23.649Z,26.00
2022-10-18T19:22:50.540Z,25.80
2022-10-18T19:25:17.599Z,24.70
2022-10-18T19:27:44.646Z,26.00
2022-10-18T19:30:11.604Z,15.00
2022-10-18T19:32:38.413Z,21.40
2022-10-18T19:35:05.444Z,20.30
2022-10-18T19:37:32.810Z,21.90
2022-10-18T19:40:00.008Z,23.10
2022-10-18T19:42:30.310Z,26.10
2022-10-18T19:44:58.258Z,24.10
2022-10-18T19:47:25.212Z,28.90
2022-10-18T19:49:53.843Z,18.40
2022-10-18T19:52:20.776Z,25.10
2022-10-18T19:54:48.892Z,21.80
2022-10-18T19:57:15.807Z,20.10
2022-10-18T19:59:42.839Z,17.40
2022-10-18T20:02:13.370Z,21.20
2022-10-18T20:04:40.194Z,20.10
2022-10-18T20:07:07.141Z,19.10
2022-10-18T20:09:34.144Z,18.20
2022-10-18T20:12:01.218Z,19.90
2022-10-18T20:14:28.225Z,17.50
2022-10-18T20:16:55.158Z,17.60
2022-10-18T20:19:22.074Z,26.00
2022-10-18T20:21:49.051Z,20.40
2022-10-18T20:24:15.949Z,22.00
2022-10-18T20:26:43.770Z,19.90
2022-10-18T20:29:10.891Z,22.60
2022-10-18T20:31:39.219Z,23.10
2022-10-18T20:34:08.290Z,25.30
2022-10-18T20:36:35.419Z,19.80
2022-10-18T20:39:02.491Z,23.10
2022-10-18T20:41:38.106Z,21.00
2022-10-18T20:44:07.135Z,20.20
2022-10-18T20:46:35.460Z,18.70
2022-10-18T20:49:02.677Z,23.00
2022-10-18T20:51:29.573Z,15.40
2022-10-18T20:53:56.500Z,22.90
2022-10-18T20:56:25.296Z,16.80
2022-10-18T20:58:53.416Z,19.20
2022-10-18T21:01:22.219Z,25.30
2022-10-18T21:03:49.924Z,27.10
2022-10-18T21:06:18.788Z,20.60
2022-10-18T21:08:45.919Z,16.40
2022-10-18T21:11:13.161Z,19.50
2022-10-18T21:13:43.040Z,16.80
2022-10-18T21:16:10.125Z,19.70
2022-10-18T21:18:37.325Z,17.60
2022-10-18T21:21:14.757Z,20.40
2022-10-18T21:23:42.561Z,18.00
2022-10-18T21:26:16.785Z,20.00
2022-10-18T21:28:43.995Z,19.40
2022-10-18T21:31:18.947Z,14.10
2022-10-18T21:33:46.024Z,19.10
2022-10-18T21:36:13.396Z,19.20
2022-10-18T21:38:40.410Z,21.90
2022-10-18T21:41:09.471Z,20.60
2022-10-18T21:43:41.252Z,18.70
2022-10-18T21:46:08.414Z,18.30
2022-10-18T21:48:35.298Z,19.50
2022-10-18T21:51:06.316Z,23.40
2022-10-18T21:53:33.459Z,21.60
2022-10-18T21:56:07.002Z,21.70
2022-10-18T22:01:01.614Z,20.20
2022-10-18T22:03:28.464Z,20.50
2022-10-18T22:06:01.400Z,19.50
2022-10-18T22:08:29.857Z,19.60
2022-10-18T22:10:57.251Z,23.40
2022-10-18T22:13:24.334Z,25.20
2022-10-18T22:15:51.264Z,29.70
2022-10-18T22:18:18.319Z,19.00
2022-10-18T22:20:58.910Z,19.70
2022-10-18T22:23:34.367Z,22.20
2022-10-18T22:26:05.655Z,22.30
2022-10-18T22:28:32.781Z,28.30
2022-10-18T22:30:59.730Z,18.70
2022-10-18T22:33:26.760Z,17.90
2022-10-18T22:35:53.796Z,16.80
2022-10-18T22:38:20.822Z,15.80
2022-10-18T22:40:47.912Z,17.40
2022-10-18T22:43:14.843Z,15.20
2022-10-18T22:45:41.898Z,18.20
2022-10-18T22:48:08.751Z,16.40
2022-10-18T22:50:35.590Z,21.50
2022-10-18T22:53:02.401Z,17.30
2022-10-18T22:55:29.259Z,20.30
2022-10-18T22:57:56.442Z,20.50
2022-10-18T23:00:23.431Z,15.70
2022-10-18T23:02:50.471Z,15.30
2022-10-18T23:05:17.412Z,13.70
2022-10-18T23:07:48.195Z,15.50
2022-10-18T23:10:15.418Z,18.40
2022-10-18T23:12:42.462Z,19.30
2022-10-18T23:15:09.783Z,16.40
2022-10-18T23:17:37.133Z,21.40
2022-10-18T23:20:05.619Z,20.40
2022-10-18T23:22:32.826Z,21.70
2022-10-18T23:24:59.896Z,16.00
2022-10-18T23:27:28.491Z,18.00
2022-10-18T23:29:55.304Z,20.70
2022-10-18T23:32:22.208Z,15.80
2022-10-18T23:34:49.192Z,21.50
2022-10-18T23:37:16.103Z,17.80
2022-10-18T23:39:42.969Z,19.90
2022-10-18T23:42:09.858Z,16.10
2022-10-18T23:44:36.723Z,16.20
2022-10-18T23:47:03.718Z,14.70
2022-10-18T23:49:30.688Z,15.40
2022-10-18T23:51:57.511Z,14.50
2022-10-18T23:54:24.444Z,17.10
2022-10-18T23:56:51.370Z,19.80
2022-10-18T23:59:18.315Z,14.70
